Time,TemperatureF,DewpointF,PressureIn,WindDirection,WindDirectionDegrees,WindSpeedMPH,WindSpeedGustMPH,Humidity,HourlyPrecipIn,Conditions,Clouds,dailyrainin,SoftwareType,DateUTC
2013-05-01 00:42:00,72.0,56.0,29.79,ESE,122,6.0,11.0,57,0.00,,,0.00,,2013-05-01 05:42:00,
2013-05-01 00:52:00,72.0,56.0,29.79,ESE,122,6.0,11.0,57,0.00,,,0.00,,2013-05-01 05:52:00,
2013-05-01 01:02:00,71.0,55.0,29.80,SSE,159,1.0,9.0,57,0.00,,,0.00,,2013-05-01 06:02:00,
2013-05-01 01:12:00,71.0,55.0,29.80,SSE,159,1.0,9.0,57,0.00,,,0.00,,2013-05-01 06:12:00,
2013-05-01 01:22:00,71.0,55.0,29.80,SSE,159,1.0,9.0,57,0.00,,,0.00,,2013-05-01 06:22:00,
2013-05-01 01:32:00,71.0,55.0,29.80,SSE,159,1.0,9.0,57,0.00,,,0.00,,2013-05-01 06:32:00,
2013-05-01 01:42:00,71.0,55.0,29.80,SSE,159,1.0,9.0,57,0.00,,,0.00,,2013-05-01 06:42:00,
2013-05-01 02:22:00,65.0,55.0,29.84,NE,46,0.0,2.0,70,0.00,,,0.00,,2013-05-01 07:22:00,
2013-05-01 02:32:00,65.0,55.0,29.84,NE,46,0.0,2.0,70,0.00,,,0.00,,2013-05-01 07:32:00,
2013-05-01 02:42:00,65.0,55.0,29.84,NE,46,0.0,2.0,70,0.00,,,0.00,,2013-05-01 07:42:00,
2013-05-01 02:52:00,65.0,55.0,29.84,NE,46,0.0,2.0,70,0.00,,,0.00,,2013-05-01 07:52:00,
2013-05-01 03:01:00,62.0,54.0,29.85,WNW,294,0.0,4.0,76,0.00,,,0.00,,2013-05-01 08:01:00,
2013-05-01 03:11:00,62.0,54.0,29.85,WNW,294,0.0,4.0,76,0.00,,,0.00,,2013-05-01 08:11:00,
2013-05-01 03:22:00,62.0,55.0,29.86,WNW,302,0.0,1.0,77,0.00,,,0.00,,2013-05-01 08:22:00,
2013-05-01 03:32:00,62.0,55.0,29.86,WNW,302,0.0,1.0,77,0.00,,,0.00,,2013-05-01 08:32:00,
2013-05-01 03:42:00,62.0,55.0,29.86,WNW,302,0.0,1.0,77,0.00,,,0.00,,2013-05-01 08:42:00,
2013-05-01 03:53:00,62.0,55.0,29.87,WNW,302,0.0,6.0,77,0.00,,,0.00,,2013-05-01 08:53:00,
2013-05-01 04:01:00,62.0,55.0,29.87,WNW,302,0.0,6.0,77,0.00,,,0.00,,2013-05-01 09:01:00,
2013-05-01 04:12:00,62.0,55.0,29.87,WNW,302,0.0,6.0,77,0.00,,,0.00,,2013-05-01 09:12:00,
2013-05-01 04:21:00,60.0,54.0,29.88,NNW,335,5.0,7.0,81,0.00,,,0.00,,2013-05-01 09:21:00,
2013-05-01 04:30:00,59.0,54.0,29.91,NNW,347,1.0,5.0,83,0.00,,,0.00,,2013-05-01 09:30:00,
2013-05-01 04:33:00,60.0,54.0,29.88,NNW,335,5.0,7.0,81,0.00,,,0.00,,2013-05-01 09:33:00,
2013-05-01 04:43:00,60.0,54.0,29.88,NNW,335,5.0,7.0,81,0.00,,,0.00,,2013-05-01 09:43:00,
2013-05-01 04:53:00,59.0,54.0,29.91,NNW,347,1.0,5.0,83,0.00,,,0.00,,2013-05-01 09:53:00,
2013-05-01 05:02:00,59.0,54.0,29.91,NNW,347,1.0,5.0,83,0.00,,,0.00,,2013-05-01 10:02:00,
2013-05-01 05:12:00,59.0,54.0,29.91,NNW,347,1.0,5.0,83,0.00,,,0.00,,2013-05-01 10:12:00,
2013-05-01 05:22:00,59.0,54.0,29.91,NNW,347,1.0,5.0,83,0.00,,,0.00,,2013-05-01 10:22:00,
2013-05-01 05:53:00,58.0,44.0,29.93,NNE,23,6.0,16.0,59,0.00,,,0.00,,2013-05-01 10:53:00,
2013-05-01 06:02:00,57.0,44.0,29.93,ENE,68,12.0,17.0,62,0.00,,,0.00,,2013-05-01 11:02:00,
2013-05-01 06:11:00,57.0,44.0,29.93,ENE,68,12.0,17.0,62,0.00,,,0.00,,2013-05-01 11:11:00,
2013-05-01 06:22:00,57.0,44.0,29.93,ENE,68,12.0,17.0,62,0.00,,,0.00,,2013-05-01 11:22:00,
2013-05-01 06:32:00,57.0,45.0,29.95,ENE,63,11.0,11.0,63,0.00,,,0.00,,2013-05-01 11:32:00,
2013-05-01 06:42:00,57.0,45.0,29.95,ENE,63,11.0,11.0,63,0.00,,,0.00,,2013-05-01 11:42:00,
2013-05-01 06:52:00,57.0,45.0,29.95,ENE,63,11.0,11.0,63,0.00,,,0.00,,2013-05-01 11:52:00,
2013-05-01 07:01:00,57.0,45.0,29.96,ENE,63,11.0,11.0,63,0.00,,,0.00,,2013-05-01 12:01:00,
2013-05-01 07:11:00,57.0,45.0,29.96,ENE,63,11.0,11.0,63,0.00,,,0.00,,2013-05-01 12:11:00,
2013-05-01 07:21:00,57.0,45.0,29.96,ENE,63,11.0,11.0,63,0.00,,,0.00,,2013-05-01 12:21:00,
2013-05-01 07:31:00,57.0,45.0,29.97,ENE,63,11.0,11.0,63,0.00,,,0.00,,2013-05-01 12:31:00,
2013-05-01 07:41:00,57.0,45.0,29.97,ENE,63,11.0,11.0,63,0.00,,,0.00,,2013-05-01 12:41:00,
2013-05-01 07:52:00,57.0,45.0,29.97,ENE,63,11.0,11.0,63,0.00,,,0.00,,2013-05-01 12:52:00,
2013-05-01 08:01:00,55.0,45.0,30.00,North,358,2.0,15.0,70,0.00,,,0.00,,2013-05-01 13:01:00,
2013-05-01 08:11:00,55.0,45.0,30.00,North,358,2.0,15.0,70,0.00,,,0.00,,2013-05-01 13:11:00,
2013-05-01 08:21:00,55.0,45.0,30.00,NE,46,8.0,13.0,70,0.00,,,0.00,,2013-05-01 13:21:00,
2013-05-01 08:32:00,55.0,45.0,30.01,ENE,78,9.0,15.0,70,0.00,,,0.00,,2013-05-01 13:32:00,
2013-05-01 08:42:00,55.0,45.0,30.01,ENE,78,9.0,15.0,70,0.00,,,0.00,,2013-05-01 13:42:00,
2013-05-01 08:52:00,55.0,46.0,30.01,NE,56,6.0,17.0,71,0.00,,,0.00,,2013-05-01 13:52:00,
2013-05-01 09:02:00,55.0,46.0,30.02,NE,52,17.0,18.0,71,0.00,,,0.00,,2013-05-01 14:02:00,
2013-05-01 09:11:00,55.0,46.0,30.02,NE,52,17.0,18.0,71,0.00,,,0.00,,2013-05-01 14:11:00,
2013-05-01 09:21:00,55.0,46.0,30.02,NE,52,17.0,18.0,71,0.00,,,0.00,,2013-05-01 14:21:00,
2013-05-01 09:32:00,54.0,45.0,30.05,NW,321,6.0,13.0,71,0.00,,,0.00,,2013-05-01 14:32:00,
2013-05-01 09:42:00,54.0,45.0,30.05,NW,321,6.0,13.0,71,0.00,,,0.00,,2013-05-01 14:42:00,
2013-05-01 09:52:00,54.0,45.0,30.05,NNW,342,1.0,15.0,72,0.00,,,0.00,,2013-05-01 14:52:00,
2013-05-01 10:01:00,54.0,45.0,30.05,NNW,342,1.0,15.0,72,0.00,,,0.00,,2013-05-01 15:01:00,
2013-05-01 10:11:00,54.0,45.0,30.05,NNW,342,1.0,15.0,72,0.00,,,0.00,,2013-05-01 15:11:00,
2013-05-01 10:21:00,52.0,44.0,30.06,NNE,32,15.0,19.0,74,0.00,,,0.00,,2013-05-01 15:21:00,
2013-05-01 10:33:00,51.0,44.0,30.07,ENE,59,14.0,18.0,78,0.00,,,0.00,,2013-05-01 15:33:00,
2013-05-01 10:43:00,51.0,44.0,30.07,ENE,59,14.0,18.0,78,0.00,,,0.00,,2013-05-01 15:43:00,
2013-05-01 10:53:00,49.0,44.0,30.07,NE,44,5.0,18.0,83,0.01,,,0.01,,2013-05-01 15:53:00,
2013-05-01 11:03:00,48.0,44.0,30.08,NNE,32,12.0,18.0,86,0.02,,,0.02,,2013-05-01 16:03:00,
2013-05-01 11:12:00,48.0,44.0,30.08,NNE,32,12.0,18.0,86,0.02,,,0.02,,2013-05-01 16:12:00,
2013-05-01 11:22:00,48.0,45.0,30.08,NE,54,6.0,17.0,88,0.03,,,0.03,,2013-05-01 16:22:00,
2013-05-01 11:31:00,48.0,45.0,30.09,NE,52,3.0,17.0,90,0.04,,,0.04,,2013-05-01 16:31:00,
2013-05-01 11:42:00,48.0,45.0,30.09,NE,52,3.0,17.0,90,0.04,,,0.04,,2013-05-01 16:42:00,
2013-05-01 11:53:00,48.0,45.0,30.09,North,352,7.0,16.0,90,0.03,,,0.04,,2013-05-01 16:53:00,
2013-05-01 12:02:00,48.0,45.0,30.10,East,84,10.0,16.0,90,0.02,,,0.04,,2013-05-01 17:02:00,
2013-05-01 12:12:00,48.0,45.0,30.10,East,84,10.0,16.0,90,0.02,,,0.04,,2013-05-01 17:12:00,
2013-05-01 12:21:00,48.0,45.0,30.09,ENE,63,16.0,19.0,89,0.01,,,0.04,,2013-05-01 17:21:00,
2013-05-01 12:30:00,48.0,45.0,30.11,NE,53,6.0,18.0,89,0.00,,,0.04,,2013-05-01 17:30:00,
2013-05-01 12:31:00,48.0,45.0,30.11,North,5,9.0,18.0,89,0.00,,,0.04,,2013-05-01 17:31:00,
2013-05-01 12:42:00,48.0,45.0,30.11,NE,53,6.0,18.0,89,0.00,,,0.04,,2013-05-01 17:42:00,
2013-05-01 12:52:00,48.0,45.0,30.11,NE,53,6.0,18.0,89,0.00,,,0.04,,2013-05-01 17:52:00,
2013-05-01 13:01:00,48.0,45.0,30.11,NE,53,6.0,18.0,89,0.00,,,0.04,,2013-05-01 18:01:00,
2013-05-01 13:11:00,48.0,45.0,30.11,NE,53,6.0,18.0,89,0.00,,,0.04,,2013-05-01 18:11:00,
2013-05-01 13:22:00,48.0,45.0,30.11,NE,53,6.0,18.0,89,0.00,,,0.04,,2013-05-01 18:22:00,
2013-05-01 15:02:00,43.0,41.0,30.16,WNW,298,9.0,17.0,92,0.03,,,0.07,,2013-05-01 20:02:00,
2013-05-01 15:11:00,43.0,41.0,30.16,WNW,298,9.0,17.0,92,0.03,,,0.07,,2013-05-01 20:11:00,
2013-05-01 15:21:00,43.0,41.0,30.16,ESE,115,6.0,17.0,92,0.02,,,0.07,,2013-05-01 20:21:00,
2013-05-01 15:32:00,43.0,41.0,30.16,ESE,115,6.0,17.0,92,0.02,,,0.07,,2013-05-01 20:32:00,
2013-05-01 15:42:00,43.0,41.0,30.16,ESE,115,6.0,17.0,92,0.02,,,0.07,,2013-05-01 20:42:00,
2013-05-01 15:52:00,43.0,41.0,30.16,ESE,115,6.0,17.0,92,0.02,,,0.07,,2013-05-01 20:52:00,
2013-05-01 16:01:00,42.0,40.0,30.19,ENE,59,9.0,18.0,91,0.01,,,0.08,,2013-05-01 21:01:00,
2013-05-01 16:11:00,42.0,40.0,30.19,ENE,59,9.0,18.0,91,0.01,,,0.08,,2013-05-01 21:11:00,
2013-05-01 16:22:00,42.0,40.0,30.19,North,358,9.0,16.0,91,0.01,,,0.08,,2013-05-01 21:22:00,
2013-05-01 16:30:00,41.0,39.0,30.20,East,83,11.0,17.0,91,0.01,,,0.08,,2013-05-01 21:30:00,
2013-05-01 16:32:00,42.0,40.0,30.20,North,349,5.0,17.0,91,0.01,,,0.08,,2013-05-01 21:32:00,
2013-05-01 16:43:00,41.0,39.0,30.20,East,83,11.0,17.0,91,0.01,,,0.08,,2013-05-01 21:43:00,
2013-05-01 16:53:00,41.0,39.0,30.20,East,83,11.0,17.0,91,0.01,,,0.08,,2013-05-01 21:53:00,
2013-05-01 17:03:00,41.0,39.0,30.20,East,83,11.0,17.0,91,0.01,,,0.08,,2013-05-01 22:03:00,
2013-05-01 17:12:00,41.0,39.0,30.20,East,83,11.0,17.0,91,0.01,,,0.08,,2013-05-01 22:12:00,
2013-05-01 17:23:00,41.0,39.0,30.20,East,83,11.0,17.0,91,0.01,,,0.08,,2013-05-01 22:23:00,